Terminal Aerodrome Forecast
Issued by NWS

Home | Current Version | Previous Version | Text Only | Print | Product List | Glossary On
Versions: 1 2 3 4 5 6 7 8 9 10 11 12 13 14
000
FTUS45 KTFX 222300
TAFHVR
TAF
KHVR 222330Z 2300/2324 28010KT P6SM BKN100
     FM230500 25008KT P6SM FEW100 SCT200
     FM231800 24013KT P6SM BKN180=

USA.gov is the U.S. government's official web portal to all federal, state and local government web resources and services.